Darstellungsparameter: Aktuell verwendete Einstellungen:
Skalierung der Graphiken ... ?
xyx+y,   Skalierungsfaktor:      Skalierung: Modus: x, Faktor: 1
Darstellungszeitraum ... ?
Vom - - bis: - -   Zeitraum: 22.08.2020 - 21.09.2020
Min/Max/Avg-Anzeige ... ?
Zeige MMA aktuell
Zeige MMA Monat
Zeige MMA alles
Zeige --A aktuell
Zeige --A Monat
Zeige --A alles
Keine MMA-Anzeige
MMA:
Keine MMA-Graphiken
MMA-Basis: 22.08.2020 - 21.09.2020
Quicknavigation für Darstellung... ?
Tage:      1T, 2T, 3T, 5T -1T -2T -3T -5T +1T +2T +3T +5T
Wochen: 1W, 2W, 3W -1W -2W -3W +1W +2W +3W
Monate: 1M, 3M, 6M -1M -3M -6M +1M +3M +6M
Jahre:    1J, 3J, 5J, 10J -1J -3J -5J -10J +1J +3J +5J +10J
Nutze für die Darstellung ... ?
Originaldaten oder ...
Mittelwerte Minima Maxima auf...
Stundenbasis Tagesbasis Wochenbasis
Monatsbasis Jahresbasis      Datenbasis: Mittelwerte auf Stundenbasis
Darstellen als:
Statistik (Auto) Statistik J:M      Darstellung:
Zur Graphik,    zurück zur Übersicht aller Sensoren.
 
Tabellarische Datenbersicht: ?
 
Sensor: Nr:Datum:Temp:Abs-Feuchte:Windchill:Wind:
Aussen-T/F 1 22-08-2020 00:00:00 21.8 C 16 g/m*3 21.8 C 0 km/h
2 22-08-2020 01:00:00 21.65 C 15.88 g/m*3 21.65 C 0.8 km/h
3 22-08-2020 02:00:00 21.43333 C 15.75 g/m*3 21.43 C 0.93333 km/h
4 22-08-2020 03:00:00 21.28333 C 15.46 g/m*3 21.28 C 1.06667 km/h
5 22-08-2020 04:00:00 20.675 C 15.08 g/m*3 20.68 C 1.2 km/h
6 22-08-2020 05:00:00 20.525 C 15.21 g/m*3 20.53 C 1.86667 km/h
7 22-08-2020 06:00:00 20.94167 C 15.46 g/m*3 20.94 C 6.29167 km/h
8 22-08-2020 07:00:00 21.5 C 15.51 g/m*3 21.5 C 8.725 km/h
9 22-08-2020 08:00:00 21.525 C 15.33 g/m*3 21.53 C 9.00833 km/h
10 22-08-2020 09:00:00 21.70833 C 13.9 g/m*3 21.71 C 10.2 km/h
11 22-08-2020 10:00:00 21.79167 C 12.99 g/m*3 21.79 C 12.76667 km/h
12 22-08-2020 11:00:00 22.35 C 12.31 g/m*3 22.35 C 16.76667 km/h
13 22-08-2020 12:00:00 23.175 C 11.97 g/m*3 23.18 C 18.63333 km/h
14 22-08-2020 13:00:00 24.24167 C 11.78 g/m*3 24.24 C 17.96667 km/h
15 22-08-2020 14:00:00 25.16667 C 11.62 g/m*3 25.17 C 17.025 km/h
16 22-08-2020 15:00:00 25.38333 C 11.15 g/m*3 25.38 C 15.56667 km/h
17 22-08-2020 16:00:00 26.63333 C 10.93 g/m*3 26.63 C 18.9 km/h
18 22-08-2020 17:00:00 26.49167 C 10.8 g/m*3 26.49 C 16.5 km/h
19 22-08-2020 18:00:00 25.15833 C 10.7 g/m*3 25.16 C 16.9 km/h
20 22-08-2020 19:00:00 24.09167 C 10.99 g/m*3 24.09 C 9.01667 km/h
21 22-08-2020 20:00:00 22.5 C 11.53 g/m*3 22.5 C 3.075 km/h
22 22-08-2020 21:00:00 20.53333 C 11.65 g/m*3 20.53 C 0.53333 km/h
23 22-08-2020 22:00:00 19.75833 C 11.88 g/m*3 19.76 C 0 km/h
24 22-08-2020 23:00:00 18.63333 C 11.65 g/m*3 18.63 C 0 km/h
25 23-08-2020 00:00:00 18.81667 C 11.74 g/m*3 18.82 C 0 km/h
Sensor: Nr:Datum:Temp:Abs-Feuchte:Windchill:Wind:
Aussen-T/F 26 23-08-2020 01:00:00 18.90833 C 12.17 g/m*3 18.91 C 0 km/h
27 23-08-2020 02:00:00 18.375 C 12.3 g/m*3 18.38 C 0 km/h
28 23-08-2020 03:00:00 17.71667 C 12.09 g/m*3 17.72 C 0 km/h
29 23-08-2020 04:00:00 17.26667 C 12.08 g/m*3 17.27 C 0 km/h
30 23-08-2020 05:00:00 17.16667 C 11.97 g/m*3 17.17 C 0.4 km/h
31 23-08-2020 06:00:00 16.93333 C 11.82 g/m*3 16.93 C 2.13333 km/h
32 23-08-2020 07:00:00 16.49167 C 11.86 g/m*3 16.49 C 0.93333 km/h
33 23-08-2020 08:00:00 18.025 C 12.46 g/m*3 18.02 C 2.53333 km/h
34 23-08-2020 09:00:00 18.975 C 12.5 g/m*3 18.98 C 3.875 km/h
35 23-08-2020 10:00:00 20.11667 C 11.86 g/m*3 20.12 C 11.29167 km/h
36 23-08-2020 11:00:00 20.38333 C 10.96 g/m*3 20.38 C 15.16667 km/h
37 23-08-2020 12:00:00 20.825 C 10.77 g/m*3 20.83 C 15.43333 km/h
38 23-08-2020 13:00:00 21.175 C 9.96 g/m*3 21.18 C 15.03333 km/h
39 23-08-2020 14:00:00 22.1 C 9.6 g/m*3 22.1 C 15.56667 km/h
40 23-08-2020 15:00:00 22.2 C 9.8 g/m*3 22.2 C 15.83333 km/h
41 23-08-2020 16:00:00 22.34167 C 9.78 g/m*3 22.34 C 13.56667 km/h
42 23-08-2020 17:00:00 21.83333 C 10.03 g/m*3 21.83 C 13.15833 km/h
43 23-08-2020 18:00:00 20.60833 C 10.76 g/m*3 20.61 C 15.7 km/h
44 23-08-2020 19:00:00 18.925 C 11.53 g/m*3 18.93 C 12.36667 km/h
45 23-08-2020 20:00:00 18.26667 C 11.6 g/m*3 18.27 C 10.35833 km/h
46 23-08-2020 21:00:00 17.90833 C 11.51 g/m*3 17.91 C 11.43333 km/h
47 23-08-2020 22:00:00 17.50833 C 11.47 g/m*3 17.51 C 10.20833 km/h
48 23-08-2020 23:00:00 16.91667 C 11.4 g/m*3 16.92 C 7.10833 km/h
49 24-08-2020 00:00:00 16.85833 C 11.33 g/m*3 16.86 C 4.55 km/h
50 24-08-2020 01:00:00 16.425 C 11.36 g/m*3 16.43 C 2.53333 km/h
Sensor: Nr:Datum:Temp:Abs-Feuchte:Windchill:Wind:
Aussen-T/F 51 24-08-2020 02:00:00 16.5 C 11.46 g/m*3 16.5 C 4.40833 km/h
52 24-08-2020 03:00:00 16.41667 C 11.44 g/m*3 16.42 C 0.93333 km/h
53 24-08-2020 04:00:00 16.275 C 11.39 g/m*3 16.27 C 3.74167 km/h
54 24-08-2020 05:00:00 16.03333 C 11.25 g/m*3 16.03 C 2.93333 km/h
55 24-08-2020 06:00:00 15.65833 C 11.19 g/m*3 15.66 C 3.33333 km/h
56 24-08-2020 07:00:00 14.875 C 10.88 g/m*3 14.88 C 3.475 km/h
57 24-08-2020 08:00:00 14.76667 C 10.7 g/m*3 14.77 C 5.08333 km/h
58 24-08-2020 09:00:00 16.325 C 10.9 g/m*3 16.33 C 13.96667 km/h
59 24-08-2020 10:00:00 17.88333 C 11 g/m*3 17.88 C 12.76667 km/h
60 24-08-2020 11:00:00 18.9 C 10.91 g/m*3 18.9 C 13.7 km/h
61 24-08-2020 12:00:00 19.41667 C 11.09 g/m*3 19.42 C 10.48333 km/h
62 24-08-2020 13:00:00 19.71667 C 11.02 g/m*3 19.72 C 12.1 km/h
63 24-08-2020 14:00:00 19.98333 C 11.08 g/m*3 19.98 C 13.43333 km/h
64 24-08-2020 15:00:00 21.05833 C 10.61 g/m*3 21.06 C 14.36667 km/h
65 24-08-2020 16:00:00 21.95 C 10.29 g/m*3 21.95 C 11.96667 km/h
66 24-08-2020 17:00:00 22.70833 C 10.34 g/m*3 22.71 C 14.5 km/h
67 24-08-2020 18:00:00 22.86667 C 10.1 g/m*3 22.87 C 12.23333 km/h
68 24-08-2020 19:00:00 21.06667 C 10.16 g/m*3 21.07 C 6.45 km/h
69 24-08-2020 20:00:00 19.93333 C 10.46 g/m*3 19.93 C 8.45833 km/h
70 24-08-2020 21:00:00 18.23333 C 11.28 g/m*3 18.23 C 0.8 km/h
71 24-08-2020 22:00:00 16.96667 C 11.22 g/m*3 16.97 C 0 km/h
72 24-08-2020 23:00:00 16.80833 C 11.3 g/m*3 16.81 C 1.2 km/h
73 25-08-2020 00:00:00 16.83333 C 11.31 g/m*3 16.83 C 0.26667 km/h
74 25-08-2020 01:00:00 17.025 C 11.4 g/m*3 17.02 C 0 km/h
75 25-08-2020 02:00:00 16.74167 C 11.67 g/m*3 16.74 C 0.93333 km/h
Sensor: Nr:Datum:Temp:Abs-Feuchte:Windchill:Wind:
Aussen-T/F 76 25-08-2020 03:00:00 16.025 C 11.55 g/m*3 16.02 C 0.26667 km/h
77 25-08-2020 04:00:00 14.76667 C 10.82 g/m*3 14.77 C 3.2 km/h
78 25-08-2020 05:00:00 13.60833 C 10.46 g/m*3 13.61 C 0 km/h
79 25-08-2020 06:00:00 12.94167 C 10.3 g/m*3 12.94 C 0 km/h
80 25-08-2020 07:00:00 13.33333 C 10.72 g/m*3 13.33 C 0 km/h
81 25-08-2020 08:00:00 14.70833 C 11.35 g/m*3 14.71 C 0.66667 km/h
82 25-08-2020 09:00:00 15.925 C 11.57 g/m*3 15.93 C 0.13333 km/h
83 25-08-2020 10:00:00 17.125 C 11.92 g/m*3 17.13 C 0.4 km/h
84 25-08-2020 11:00:00 19.61667 C 12.12 g/m*3 19.62 C 4.41667 km/h
85 25-08-2020 12:00:00 21.9 C 11.4 g/m*3 21.9 C 7.51667 km/h
86 25-08-2020 13:00:00 22.65833 C 11.4 g/m*3 22.66 C 7.51667 km/h
87 25-08-2020 14:00:00 22.425 C 11.24 g/m*3 22.43 C 7.93333 km/h
88 25-08-2020 15:00:00 22.35833 C 11.97 g/m*3 22.36 C 0.93333 km/h
89 25-08-2020 16:00:00 21.05833 C 14.38 g/m*3 21.06 C 1.06667 km/h
90 25-08-2020 17:00:00 21.575 C 14.11 g/m*3 21.58 C 1.2 km/h
91 25-08-2020 18:00:00 26.175 C 12.05 g/m*3 26.18 C 6.56667 km/h
92 25-08-2020 19:00:00 25.375 C 12.07 g/m*3 25.38 C 3.74167 km/h
93 25-08-2020 20:00:00 22.625 C 11.37 g/m*3 22.63 C 2.4 km/h
94 25-08-2020 21:00:00 21.3 C 10.81 g/m*3 21.3 C 2.275 km/h
95 25-08-2020 22:00:00 20.83333 C 10.37 g/m*3 20.83 C 3.60833 km/h
96 25-08-2020 23:00:00 20.96667 C 10.56 g/m*3 20.97 C 2.28333 km/h
97 26-08-2020 00:00:00 21.03333 C 11.01 g/m*3 21.03 C 5.49167 km/h
98 26-08-2020 01:00:00 21.40833 C 11.91 g/m*3 21.41 C 8.18333 km/h
99 26-08-2020 02:00:00 22.49167 C 12.54 g/m*3 22.49 C 16.79167 km/h
100 26-08-2020 03:00:00 21.85833 C 12.18 g/m*3 21.86 C 23.325 km/h
Sensor: Nr:Datum:Temp:Abs-Feuchte:Windchill:Wind:
Aussen-T/F 101 26-08-2020 04:00:00 20.59167 C 11.03 g/m*3 20.59 C 21.7 km/h
102 26-08-2020 05:00:00 20.075 C 10.1 g/m*3 20.08 C 22.51667 km/h
103 26-08-2020 06:00:00 19.58333 C 9.74 g/m*3 19.58 C 21.575 km/h
104 26-08-2020 07:00:00 19.225 C 9.61 g/m*3 19.23 C 20.50833 km/h
105 26-08-2020 08:00:00 19.3 C 9.77 g/m*3 19.3 C 19.44167 km/h
106 26-08-2020 09:00:00 19.41667 C 9.99 g/m*3 19.42 C 18.24167 km/h
107 26-08-2020 10:00:00 19.55 C 10.14 g/m*3 19.55 C 17.83333 km/h
108 26-08-2020 11:00:00 19.74167 C 10.11 g/m*3 19.74 C 20.38333 km/h
109 26-08-2020 12:00:00 20.13333 C 10.57 g/m*3 20.13 C 19.70833 km/h
110 26-08-2020 13:00:00 21.025 C 10.87 g/m*3 21.03 C 21.84167 km/h
111 26-08-2020 14:00:00 21.675 C 10.51 g/m*3 21.68 C 21.04167 km/h
112 26-08-2020 15:00:00 22.49167 C 10.38 g/m*3 22.49 C 21.16667 km/h
113 26-08-2020 16:00:00 22.95833 C 10.24 g/m*3 22.96 C 26.95833 km/h
114 26-08-2020 17:00:00 22.70833 C 10.19 g/m*3 22.71 C 20.23333 km/h
115 26-08-2020 18:00:00 22.35 C 10.18 g/m*3 22.35 C 19.43333 km/h
116 26-08-2020 19:00:00 21.525 C 10.35 g/m*3 21.53 C 14.76667 km/h
117 26-08-2020 20:00:00 20.60833 C 10.65 g/m*3 20.61 C 15.96667 km/h
118 26-08-2020 21:00:00 19.93333 C 10.59 g/m*3 19.93 C 13.83333 km/h
119 26-08-2020 22:00:00 19.41667 C 10.58 g/m*3 19.42 C 6.98333 km/h
120 26-08-2020 23:00:00 18.69167 C 10.68 g/m*3 18.69 C 2.4 km/h
121 27-08-2020 00:00:00 18.05833 C 10.7 g/m*3 18.06 C 4.68333 km/h
122 27-08-2020 01:00:00 17.31667 C 10.74 g/m*3 17.32 C 2.4 km/h
123 27-08-2020 02:00:00 16.175 C 10.8 g/m*3 16.18 C 2.4 km/h
124 27-08-2020 03:00:00 15.49167 C 10.59 g/m*3 15.49 C 1.6 km/h
125 27-08-2020 04:00:00 14.05833 C 10.34 g/m*3 14.06 C 1.33333 km/h
Sensor: Nr:Datum:Temp:Abs-Feuchte:Windchill:Wind:
Aussen-T/F 126 27-08-2020 05:00:00 13.23333 C 10.16 g/m*3 13.23 C 0 km/h
127 27-08-2020 06:00:00 12.80833 C 10.11 g/m*3 12.81 C 0.93333 km/h
128 27-08-2020 07:00:00 12.76667 C 10.18 g/m*3 12.77 C 3.74167 km/h
129 27-08-2020 08:00:00 13.69167 C 10.58 g/m*3 13.69 C 4.43333 km/h
130 27-08-2020 09:00:00 15.975 C 11.09 g/m*3 15.98 C 9.56667 km/h
131 27-08-2020 10:00:00 17.20833 C 11.34 g/m*3 17.21 C 6.3 km/h
132 27-08-2020 11:00:00 18.9 C 11.43 g/m*3 18.9 C 6.575 km/h
133 27-08-2020 12:00:00 19.5 C 11.02 g/m*3 19.5 C 5.21667 km/h
134 27-08-2020 13:00:00 20.125 C 10.85 g/m*3 20.13 C 9.275 km/h
135 27-08-2020 14:00:00 21.30833 C 10.65 g/m*3 21.31 C 7.25833 km/h
136 27-08-2020 15:00:00 22.59167 C 10.29 g/m*3 22.59 C 11.15833 km/h
137 27-08-2020 16:00:00 24.475 C 10.24 g/m*3 24.48 C 10.48333 km/h
138 27-08-2020 17:00:00 25.51667 C 9.95 g/m*3 25.52 C 10.9 km/h
139 27-08-2020 18:00:00 25.83333 C 9.65 g/m*3 25.83 C 9.81667 km/h
140 27-08-2020 19:00:00 24.425 C 10.33 g/m*3 24.43 C 4.15 km/h
141 27-08-2020 20:00:00 19.86667 C 10.19 g/m*3 19.87 C 3.6 km/h
142 27-08-2020 21:00:00 17.48333 C 9.89 g/m*3 17.48 C 2.53333 km/h
143 27-08-2020 22:00:00 17.20833 C 10.11 g/m*3 17.21 C 0 km/h
144 27-08-2020 23:00:00 17.40833 C 11.38 g/m*3 17.41 C 1.20833 km/h
145 28-08-2020 00:00:00 16.45 C 11.64 g/m*3 16.45 C 3.73333 km/h
146 28-08-2020 01:00:00 16.65833 C 11.88 g/m*3 16.66 C 1.46667 km/h
147 28-08-2020 02:00:00 16.425 C 12.69 g/m*3 16.43 C 3.75 km/h
148 28-08-2020 03:00:00 15.9 C 12.54 g/m*3 15.9 C 1.73333 km/h
149 28-08-2020 04:00:00 15.725 C 12.62 g/m*3 15.73 C 5.61667 km/h
150 28-08-2020 05:00:00 15.65 C 12.67 g/m*3 15.65 C 3.06667 km/h
Sensor: Nr:Datum:Temp:Abs-Feuchte:Windchill:Wind:
Aussen-T/F 151 28-08-2020 06:00:00 15.525 C 12.58 g/m*3 15.53 C 4.14167 km/h
152 28-08-2020 07:00:00 15.56667 C 12.61 g/m*3 15.57 C 2.66667 km/h
153 28-08-2020 08:00:00 15.99167 C 12.94 g/m*3 15.99 C 1.73333 km/h
154 28-08-2020 09:00:00 16.78333 C 12.74 g/m*3 16.78 C 3.20833 km/h
155 28-08-2020 10:00:00 18.51667 C 12.23 g/m*3 18.52 C 8.875 km/h
156 28-08-2020 11:00:00 19.95833 C 11.92 g/m*3 19.96 C 11.425 km/h
157 28-08-2020 12:00:00 20.63333 C 11.87 g/m*3 20.63 C 8.89167 km/h
158 28-08-2020 13:00:00 20.40833 C 11.52 g/m*3 20.41 C 10.09167 km/h
159 28-08-2020 14:00:00 20.875 C 11.68 g/m*3 20.88 C 5.88333 km/h
160 28-08-2020 15:00:00 21.38333 C 11.71 g/m*3 21.38 C 6.3 km/h
161 28-08-2020 16:00:00 21.73333 C 11.91 g/m*3 21.73 C 9.53333 km/h
162 28-08-2020 17:00:00 22.425 C 11.45 g/m*3 22.43 C 12.5 km/h
163 28-08-2020 18:00:00 21.525 C 10.42 g/m*3 21.53 C 11.14167 km/h
164 28-08-2020 19:00:00 20.36667 C 9.75 g/m*3 20.37 C 5.225 km/h
165 28-08-2020 20:00:00 18.75 C 10.24 g/m*3 18.75 C 9.39167 km/h
166 28-08-2020 21:00:00 14.975 C 10.65 g/m*3 14.98 C 5.78333 km/h
167 28-08-2020 22:00:00 13.625 C 10.32 g/m*3 13.63 C 3.33333 km/h
168 28-08-2020 23:00:00 12.95 C 10.1 g/m*3 12.95 C 1.46667 km/h
169 29-08-2020 00:00:00 12.475 C 9.99 g/m*3 12.48 C 1.46667 km/h
170 29-08-2020 01:00:00 12.425 C 10 g/m*3 12.43 C 2.93333 km/h
171 29-08-2020 02:00:00 12.05 C 9.84 g/m*3 12.05 C 1.86667 km/h
172 29-08-2020 03:00:00 11.71667 C 9.69 g/m*3 11.72 C 1.6 km/h
173 29-08-2020 04:00:00 11.725 C 9.76 g/m*3 11.73 C 2.13333 km/h
174 29-08-2020 05:00:00 11.15833 C 9.42 g/m*3 11.16 C 1.33333 km/h
175 29-08-2020 06:00:00 10.96667 C 9.41 g/m*3 10.97 C 0 km/h
Sensor: Nr:Datum:Temp:Abs-Feuchte:Windchill:Wind:
Aussen-T/F 176 29-08-2020 07:00:00 11.275 C 9.67 g/m*3 11.28 C 1.46667 km/h
177 29-08-2020 08:00:00 12.3 C 10.34 g/m*3 12.3 C 3.88333 km/h
178 29-08-2020 09:00:00 14.73333 C 10.81 g/m*3 14.73 C 10.75 km/h
179 29-08-2020 10:00:00 16.60833 C 10.97 g/m*3 16.61 C 13.56667 km/h
180 29-08-2020 11:00:00 17.73333 C 11.09 g/m*3 17.73 C 15.16667 km/h
181 29-08-2020 12:00:00 18.84167 C 11.07 g/m*3 18.84 C 16.23333 km/h
182 29-08-2020 13:00:00 19.35 C 10.91 g/m*3 19.35 C 14.09167 km/h
183 29-08-2020 14:00:00 20.28333 C 10.69 g/m*3 20.28 C 15.16667 km/h
184 29-08-2020 15:00:00 21.31667 C 10.32 g/m*3 21.32 C 13.16667 km/h
185 29-08-2020 16:00:00 22.5 C 10.37 g/m*3 22.5 C 9.80833 km/h
186 29-08-2020 17:00:00 22.75 C 10.18 g/m*3 22.75 C 11.55833 km/h
187 29-08-2020 18:00:00 21.88333 C 10.72 g/m*3 21.88 C 2.15 km/h
188 29-08-2020 19:00:00 22.025 C 10.82 g/m*3 22.03 C 3.075 km/h
189 29-08-2020 20:00:00 19.88333 C 11.1 g/m*3 19.88 C 3.20833 km/h
190 29-08-2020 21:00:00 17.675 C 11.4 g/m*3 17.68 C 8.06667 km/h
191 29-08-2020 22:00:00 14.83333 C 11.01 g/m*3 14.83 C 7.25833 km/h
192 29-08-2020 23:00:00 13.36667 C 10.55 g/m*3 13.37 C 4 km/h
193 30-08-2020 00:00:00 13.025 C 10.5 g/m*3 13.03 C 0.66667 km/h
194 30-08-2020 01:00:00 12.325 C 10.13 g/m*3 12.33 C 0.53333 km/h
195 30-08-2020 02:00:00 11.58333 C 9.76 g/m*3 11.58 C 0 km/h
196 30-08-2020 03:00:00 11.06667 C 9.48 g/m*3 11.07 C 0 km/h
197 30-08-2020 04:00:00 10.675 C 9.32 g/m*3 10.68 C 0 km/h
198 30-08-2020 05:00:00 10.86667 C 9.5 g/m*3 10.87 C 0 km/h
199 30-08-2020 06:00:00 10.66667 C 9.39 g/m*3 10.67 C 0 km/h
200 30-08-2020 07:00:00 11.1 C 9.67 g/m*3 11.1 C 1.2 km/h
Sensor: Nr:Datum:Temp:Abs-Feuchte:Windchill:Wind:
Aussen-T/F 201 30-08-2020 08:00:00 11.94167 C 10.2 g/m*3 11.94 C 0.26667 km/h
202 30-08-2020 09:00:00 13.15833 C 11.01 g/m*3 13.16 C 0.66667 km/h
203 30-08-2020 10:00:00 14.78333 C 11.25 g/m*3 14.78 C 6.28333 km/h
204 30-08-2020 11:00:00 16.20833 C 11.42 g/m*3 16.21 C 6.55833 km/h
205 30-08-2020 12:00:00 17.03333 C 11.54 g/m*3 17.03 C 8.06667 km/h
206 30-08-2020 13:00:00 18.01667 C 11.63 g/m*3 18.02 C 6.03333 km/h
207 30-08-2020 14:00:00 18.85 C 11.5 g/m*3 18.85 C 5.75833 km/h
208 30-08-2020 15:00:00 19.89167 C 11.21 g/m*3 19.89 C 7.38333 km/h
209 30-08-2020 16:00:00 21.325 C 10.55 g/m*3 21.33 C 8.06667 km/h
210 30-08-2020 17:00:00 21.625 C 10.34 g/m*3 21.63 C 7.79167 km/h
211 30-08-2020 18:00:00 21.61667 C 9.92 g/m*3 21.62 C 5.5 km/h
212 30-08-2020 19:00:00 20.63333 C 10.39 g/m*3 20.63 C 2.15 km/h
213 30-08-2020 20:00:00 18.9 C 10.81 g/m*3 18.9 C 3.49167 km/h
214 30-08-2020 21:00:00 18.875 C 11.53 g/m*3 18.88 C 4.01667 km/h
215 30-08-2020 22:00:00 17.65833 C 11.53 g/m*3 17.66 C 0 km/h
216 30-08-2020 23:00:00 16.69167 C 11.34 g/m*3 16.69 C 0 km/h
217 31-08-2020 00:00:00 16.06667 C 11.23 g/m*3 16.07 C 0 km/h
218 31-08-2020 01:00:00 15.70833 C 11.37 g/m*3 15.71 C 0 km/h
219 31-08-2020 02:00:00 15.46667 C 11.4 g/m*3 15.47 C 0 km/h
220 31-08-2020 03:00:00 14.65833 C 10.85 g/m*3 14.66 C 0 km/h
221 31-08-2020 04:00:00 13.725 C 10.62 g/m*3 13.73 C 0 km/h
222 31-08-2020 05:00:00 13.15833 C 10.37 g/m*3 13.16 C 0.26667 km/h
223 31-08-2020 06:00:00 12.70833 C 10.28 g/m*3 12.71 C 0.4 km/h
224 31-08-2020 07:00:00 13.19167 C 10.71 g/m*3 13.19 C 0 km/h
225 31-08-2020 08:00:00 14.24167 C 11.26 g/m*3 14.24 C 0 km/h
Sensor: Nr:Datum:Temp:Abs-Feuchte:Windchill:Wind:
Aussen-T/F 226 31-08-2020 09:00:00 15.55 C 11.74 g/m*3 15.55 C 0.4 km/h
227 31-08-2020 10:00:00 16.6 C 12.04 g/m*3 16.6 C 4.69167 km/h
228 31-08-2020 11:00:00 17.70833 C 12.16 g/m*3 17.71 C 6.425 km/h
229 31-08-2020 12:00:00 18.95833 C 12.61 g/m*3 18.96 C 6.975 km/h
230 31-08-2020 13:00:00 19.55 C 12.68 g/m*3 19.55 C 6.69167 km/h
231 31-08-2020 14:00:00 18.38333 C 12.83 g/m*3 18.38 C 7.64167 km/h
232 31-08-2020 15:00:00 16.35 C 12.76 g/m*3 16.35 C 1.2 km/h
233 31-08-2020 16:00:00 16.74167 C 13.17 g/m*3 16.74 C 0 km/h
234 31-08-2020 17:00:00 16.4 C 12.91 g/m*3 16.4 C 0.4 km/h
235 31-08-2020 18:00:00 16.025 C 12.78 g/m*3 16.02 C 0.66667 km/h
236 31-08-2020 19:00:00 15.6 C 12.45 g/m*3 15.6 C 2.26667 km/h
237 31-08-2020 20:00:00 14.91667 C 12 g/m*3 14.92 C 2.13333 km/h
238 31-08-2020 21:00:00 14.56667 C 11.86 g/m*3 14.57 C 0.66667 km/h
239 31-08-2020 22:00:00 14.49167 C 11.84 g/m*3 14.49 C 0.4 km/h
240 31-08-2020 23:00:00 14.45833 C 11.91 g/m*3 14.46 C 0.53333 km/h
241 01-09-2020 00:00:00 14.15 C 11.69 g/m*3 14.15 C 0.26667 km/h
242 01-09-2020 01:00:00 14.06667 C 11.63 g/m*3 14.07 C 0 km/h
243 01-09-2020 02:00:00 13.66667 C 11.34 g/m*3 13.67 C 0.66667 km/h
244 01-09-2020 03:00:00 13.125 C 10.97 g/m*3 13.13 C 2.4 km/h
245 01-09-2020 04:00:00 12.94167 C 10.86 g/m*3 12.94 C 1.33333 km/h
246 01-09-2020 05:00:00 12.55833 C 10.63 g/m*3 12.56 C 2.66667 km/h
247 01-09-2020 06:00:00 12.14167 C 10.4 g/m*3 12.14 C 2.13333 km/h
248 01-09-2020 07:00:00 12.50833 C 10.67 g/m*3 12.51 C 0 km/h
249 01-09-2020 08:00:00 13.40833 C 11.28 g/m*3 13.41 C 0 km/h
250 01-09-2020 09:00:00 13.875 C 11.61 g/m*3 13.88 C 0 km/h
Sensor: Nr:Datum:Temp:Abs-Feuchte:Windchill:Wind:
Aussen-T/F 251 01-09-2020 10:00:00 14.26667 C 11.86 g/m*3 14.27 C 1.33333 km/h
252 01-09-2020 11:00:00 15.35833 C 12.14 g/m*3 15.36 C 2.13333 km/h
253 01-09-2020 12:00:00 17 C 12.36 g/m*3 17 C 1.6 km/h
254 01-09-2020 13:00:00 18.525 C 11.57 g/m*3 18.52 C 6.85833 km/h
255 01-09-2020 14:00:00 19.45833 C 10.77 g/m*3 19.46 C 8.475 km/h
256 01-09-2020 15:00:00 19.99167 C 10.44 g/m*3 19.99 C 4.83333 km/h
257 01-09-2020 16:00:00 18.60833 C 11.8 g/m*3 18.61 C 5.64167 km/h
258 01-09-2020 17:00:00 17.18333 C 11.62 g/m*3 17.18 C 4.43333 km/h
259 01-09-2020 18:00:00 16.375 C 11.76 g/m*3 16.38 C 0.8 km/h
260 01-09-2020 19:00:00 16.5 C 11.99 g/m*3 16.5 C 1.46667 km/h
261 01-09-2020 20:00:00 15.26667 C 11.15 g/m*3 15.27 C 2.53333 km/h
262 01-09-2020 21:00:00 14.15 C 10.8 g/m*3 14.15 C 2 km/h
263 01-09-2020 22:00:00 13.7 C 10.68 g/m*3 13.7 C 0.26667 km/h
264 01-09-2020 23:00:00 13.30833 C 10.61 g/m*3 13.31 C 0 km/h
265 02-09-2020 00:00:00 13.30833 C 10.72 g/m*3 13.31 C 0 km/h
266 02-09-2020 01:00:00 13.2 C 10.68 g/m*3 13.2 C 0.4 km/h
267 02-09-2020 02:00:00 12.90833 C 10.51 g/m*3 12.91 C 0.26667 km/h
268 02-09-2020 03:00:00 12.80833 C 10.53 g/m*3 12.81 C 0.4 km/h
269 02-09-2020 04:00:00 12.70833 C 10.47 g/m*3 12.71 C 0 km/h
270 02-09-2020 05:00:00 12.51667 C 10.41 g/m*3 12.52 C 0 km/h
271 02-09-2020 06:00:00 12.3 C 10.32 g/m*3 12.3 C 0.26667 km/h
272 02-09-2020 07:00:00 11.59167 C 9.87 g/m*3 11.59 C 0.93333 km/h
273 02-09-2020 08:00:00 11.49167 C 9.85 g/m*3 11.49 C 0.26667 km/h
274 02-09-2020 09:00:00 12.83333 C 10.7 g/m*3 12.83 C 0.26667 km/h
275 02-09-2020 10:00:00 14.63333 C 11.02 g/m*3 14.63 C 1.33333 km/h
Sensor: Nr:Datum:Temp:Abs-Feuchte:Windchill:Wind:
Aussen-T/F 276 02-09-2020 11:00:00 16.36667 C 11.09 g/m*3 16.37 C 1.6 km/h
277 02-09-2020 12:00:00 17.19167 C 11.38 g/m*3 17.19 C 1.33333 km/h
278 02-09-2020 13:00:00 18.68333 C 10.54 g/m*3 18.68 C 3.88333 km/h
279 02-09-2020 14:00:00 19.825 C 9.65 g/m*3 19.83 C 5.76667 km/h
280 02-09-2020 15:00:00 21.1 C 9.44 g/m*3 21.1 C 6.43333 km/h
281 02-09-2020 16:00:00 22.025 C 9.43 g/m*3 22.03 C 4.16667 km/h
282 02-09-2020 17:00:00 23.05 C 9.91 g/m*3 23.05 C 3.89167 km/h
283 02-09-2020 18:00:00 19.98333 C 11.31 g/m*3 19.98 C 0.8 km/h
284 02-09-2020 19:00:00 18.55833 C 10.64 g/m*3 18.56 C 3.75833 km/h
285 02-09-2020 20:00:00 16.25 C 9.57 g/m*3 16.25 C 7.39167 km/h
286 02-09-2020 21:00:00 14.8 C 9.7 g/m*3 14.8 C 0 km/h
287 02-09-2020 22:00:00 14.16667 C 10.04 g/m*3 14.17 C 0 km/h
288 02-09-2020 23:00:00 13.5 C 9.67 g/m*3 13.5 C 0 km/h
289 03-09-2020 00:00:00 12.325 C 9.24 g/m*3 12.33 C 0 km/h
290 03-09-2020 01:00:00 11.38333 C 9 g/m*3 11.38 C 0 km/h
291 03-09-2020 02:00:00 10.55833 C 8.75 g/m*3 10.56 C 0 km/h
292 03-09-2020 03:00:00 10.275 C 8.76 g/m*3 10.28 C 0 km/h
293 03-09-2020 04:00:00 10.05833 C 8.73 g/m*3 10.06 C 0 km/h
294 03-09-2020 05:00:00 9.84167 C 8.69 g/m*3 9.84 C 0.26667 km/h
295 03-09-2020 06:00:00 10.14167 C 8.91 g/m*3 10.14 C 0.13333 km/h
296 03-09-2020 07:00:00 10.35833 C 9.04 g/m*3 10.36 C 0.13333 km/h
297 03-09-2020 08:00:00 11.25833 C 9.47 g/m*3 11.26 C 0.8 km/h
298 03-09-2020 09:00:00 12.76667 C 9.91 g/m*3 12.77 C 1.33333 km/h
299 03-09-2020 10:00:00 14.60833 C 10.5 g/m*3 14.61 C 0.53333 km/h
300 03-09-2020 11:00:00 17.63333 C 11.13 g/m*3 17.63 C 6.85833 km/h
Sensor: Nr:Datum:Temp:Abs-Feuchte:Windchill:Wind:
Aussen-T/F 301 03-09-2020 12:00:00 19.33333 C 11.12 g/m*3 19.33 C 8.475 km/h
302 03-09-2020 13:00:00 19.08333 C 11.57 g/m*3 19.08 C 7.39167 km/h
303 03-09-2020 14:00:00 17.73333 C 11.89 g/m*3 17.73 C 4.3 km/h
304 03-09-2020 15:00:00 17.99167 C 12.31 g/m*3 17.99 C 5.225 km/h
305 03-09-2020 16:00:00 16.2 C 12.32 g/m*3 16.2 C 3.475 km/h
306 03-09-2020 17:00:00 15.85833 C 12.52 g/m*3 15.86 C 1.2 km/h
307 03-09-2020 18:00:00 16.11667 C 12.82 g/m*3 16.12 C 1.33333 km/h
308 03-09-2020 19:00:00 15.95 C 12.75 g/m*3 15.95 C 2.53333 km/h
309 03-09-2020 20:00:00 15.5 C 12.43 g/m*3 15.5 C 1.73333 km/h
310 03-09-2020 21:00:00 15.28333 C 12.34 g/m*3 15.28 C 2 km/h
311 03-09-2020 22:00:00 15.63333 C 12.57 g/m*3 15.63 C 0.66667 km/h
312 03-09-2020 23:00:00 15.75833 C 12.62 g/m*3 15.76 C 0.13333 km/h
313 04-09-2020 00:00:00 15.825 C 12.67 g/m*3 15.83 C 0 km/h
314 04-09-2020 01:00:00 15.78333 C 12.64 g/m*3 15.78 C 0.4 km/h
315 04-09-2020 02:00:00 15.84167 C 12.54 g/m*3 15.84 C 1.06667 km/h
316 04-09-2020 03:00:00 16.46667 C 12.85 g/m*3 16.47 C 0.8 km/h
317 04-09-2020 04:00:00 16.7 C 12.81 g/m*3 16.7 C 0 km/h
318 04-09-2020 05:00:00 16.7 C 12.85 g/m*3 16.7 C 0 km/h
319 04-09-2020 06:00:00 16.58333 C 12.7 g/m*3 16.58 C 1.73333 km/h
320 04-09-2020 07:00:00 16.78333 C 12.7 g/m*3 16.78 C 0.8 km/h
321 04-09-2020 08:00:00 17.175 C 13 g/m*3 17.18 C 0.4 km/h
322 04-09-2020 09:00:00 18.35 C 13.41 g/m*3 18.35 C 1.2 km/h
323 04-09-2020 10:00:00 19.25833 C 13.68 g/m*3 19.26 C 0.13333 km/h
324 04-09-2020 11:00:00 20.375 C 13.81 g/m*3 20.38 C 1.86667 km/h
325 04-09-2020 12:00:00 22.45 C 14.06 g/m*3 22.45 C 10.49167 km/h
Sensor: Nr:Datum:Temp:Abs-Feuchte:Windchill:Wind:
Aussen-T/F 326 04-09-2020 13:00:00 24.5 C 14.62 g/m*3 24.5 C 14.23333 km/h
327 04-09-2020 14:00:00 25.675 C 14.66 g/m*3 25.68 C 10.20833 km/h
328 04-09-2020 15:00:00 25.71667 C 14.64 g/m*3 25.72 C 4.94167 km/h
329 04-09-2020 16:00:00 26.34167 C 14.62 g/m*3 26.34 C 2.93333 km/h
330 04-09-2020 17:00:00 28.15833 C 15.38 g/m*3 28.16 C 2.40833 km/h
331 04-09-2020 18:00:00 25.54167 C 15.78 g/m*3 25.54 C 7.80833 km/h
332 04-09-2020 19:00:00 23.40833 C 15.83 g/m*3 23.41 C 4.4 km/h
333 04-09-2020 20:00:00 21.325 C 15.4 g/m*3 21.33 C 1.475 km/h
334 04-09-2020 21:00:00 20.075 C 15.14 g/m*3 20.08 C 2.13333 km/h
335 04-09-2020 22:00:00 19.50833 C 14.64 g/m*3 19.51 C 0.53333 km/h
336 04-09-2020 23:00:00 18.725 C 14.47 g/m*3 18.73 C 0 km/h
337 05-09-2020 00:00:00 17.79167 C 13.8 g/m*3 17.79 C 2 km/h
338 05-09-2020 01:00:00 16.61667 C 13.06 g/m*3 16.62 C 0 km/h
339 05-09-2020 02:00:00 15.875 C 12.68 g/m*3 15.88 C 0 km/h
340 05-09-2020 03:00:00 16.04167 C 12.98 g/m*3 16.04 C 0 km/h
341 05-09-2020 04:00:00 16.50833 C 13.46 g/m*3 16.51 C 0.4 km/h
342 05-09-2020 05:00:00 16.7 C 13.58 g/m*3 16.7 C 0 km/h
343 05-09-2020 06:00:00 16.25833 C 12.62 g/m*3 16.26 C 6.04167 km/h
344 05-09-2020 07:00:00 15.81667 C 11.42 g/m*3 15.82 C 4.00833 km/h
345 05-09-2020 08:00:00 15.50833 C 11.31 g/m*3 15.51 C 2.26667 km/h
346 05-09-2020 09:00:00 15.875 C 11.35 g/m*3 15.88 C 3.475 km/h
347 05-09-2020 10:00:00 16.64167 C 11.42 g/m*3 16.64 C 6.84167 km/h
348 05-09-2020 11:00:00 17.79167 C 11.57 g/m*3 17.79 C 7.93333 km/h
349 05-09-2020 12:00:00 18.36667 C 11.37 g/m*3 18.37 C 11.15 km/h
350 05-09-2020 13:00:00 18.64167 C 11.31 g/m*3 18.64 C 11.025 km/h
Sensor: Nr:Datum:Temp:Abs-Feuchte:Windchill:Wind:
Aussen-T/F 351 05-09-2020 14:00:00 18.825 C 11.17 g/m*3 18.83 C 12.89167 km/h
352 05-09-2020 15:00:00 17.76667 C 11.07 g/m*3 17.77 C 11.3 km/h
353 05-09-2020 16:00:00 18.68333 C 10.68 g/m*3 18.68 C 9.69167 km/h
354 05-09-2020 17:00:00 19.44167 C 10.05 g/m*3 19.44 C 9.425 km/h
355 05-09-2020 18:00:00 20.2 C 9.08 g/m*3 20.2 C 7.91667 km/h
356 05-09-2020 19:00:00 18.6 C 9.23 g/m*3 18.6 C 1.74167 km/h
357 05-09-2020 20:00:00 16.40833 C 9.19 g/m*3 16.41 C 3.60833 km/h
358 05-09-2020 21:00:00 14.35833 C 9.35 g/m*3 14.36 C 3.06667 km/h
359 05-09-2020 22:00:00 13.725 C 9.27 g/m*3 13.73 C 3.6 km/h
360 05-09-2020 23:00:00 13.08333 C 9.22 g/m*3 13.08 C 4.53333 km/h
361 06-09-2020 00:00:00 12.55 C 9.19 g/m*3 12.55 C 2.8 km/h
362 06-09-2020 01:00:00 11.725 C 9.08 g/m*3 11.73 C 0 km/h
363 06-09-2020 02:00:00 10.51667 C 8.62 g/m*3 10.52 C 0.13333 km/h
364 06-09-2020 03:00:00 9.65 C 8.34 g/m*3 9.65 C 0.26667 km/h
365 06-09-2020 04:00:00 9.06667 C 8.17 g/m*3 9.07 C 0.13333 km/h
366 06-09-2020 05:00:00 8.60833 C 8.03 g/m*3 8.61 C 0.4 km/h
367 06-09-2020 06:00:00 8.175 C 7.85 g/m*3 8.18 C 0 km/h
368 06-09-2020 07:00:00 8.03333 C 7.85 g/m*3 8.03 C 0.13333 km/h
369 06-09-2020 08:00:00 8.125 C 7.92 g/m*3 8.13 C 0.53333 km/h
370 06-09-2020 09:00:00 8.96667 C 8.42 g/m*3 8.97 C 1.33333 km/h
371 06-09-2020 10:00:00 10.61667 C 9.31 g/m*3 10.62 C 0.4 km/h
372 06-09-2020 11:00:00 13.84167 C 9.64 g/m*3 13.84 C 0.53333 km/h
373 06-09-2020 12:00:00 16.43333 C 9.18 g/m*3 16.43 C 4.825 km/h
374 06-09-2020 13:00:00 17.45 C 8.83 g/m*3 17.45 C 4.03333 km/h
375 06-09-2020 14:00:00 18.61667 C 8.8 g/m*3 18.62 C 4.55 km/h
Sensor: Nr:Datum:Temp:Abs-Feuchte:Windchill:Wind:
Aussen-T/F 376 06-09-2020 15:00:00 19.04167 C 8.6 g/m*3 19.04 C 6.30833 km/h
377 06-09-2020 16:00:00 18.5 C 8.43 g/m*3 18.5 C 5.50833 km/h
378 06-09-2020 17:00:00 18.56667 C 8.68 g/m*3 18.57 C 7.53333 km/h
379 06-09-2020 18:00:00 19.11667 C 8.76 g/m*3 19.12 C 3.34167 km/h
380 06-09-2020 19:00:00 18.65 C 8.87 g/m*3 18.65 C 2.4 km/h
381 06-09-2020 20:00:00 14.71667 C 8.58 g/m*3 14.72 C 0 km/h
382 06-09-2020 21:00:00 12.83333 C 8.62 g/m*3 12.83 C 0 km/h
383 06-09-2020 22:00:00 12.35 C 8.89 g/m*3 12.35 C 0 km/h
384 06-09-2020 23:00:00 12.575 C 9.02 g/m*3 12.58 C 0.26667 km/h
385 07-09-2020 00:00:00 12.59167 C 9.03 g/m*3 12.59 C 0.13333 km/h
386 07-09-2020 01:00:00 12.19167 C 8.95 g/m*3 12.19 C 0 km/h
387 07-09-2020 02:00:00 10.725 C 8.44 g/m*3 10.73 C 0.13333 km/h
388 07-09-2020 03:00:00 9.475 C 8.1 g/m*3 9.48 C 0.13333 km/h
389 07-09-2020 04:00:00 8.80833 C 7.93 g/m*3 8.81 C 0.13333 km/h
390 07-09-2020 05:00:00 8.24167 C 7.76 g/m*3 8.24 C 0.4 km/h
391 07-09-2020 06:00:00 7.81667 C 7.62 g/m*3 7.82 C 0.53333 km/h
392 07-09-2020 07:00:00 7.6 C 7.57 g/m*3 7.6 C 0 km/h
393 07-09-2020 08:00:00 7.98333 C 7.85 g/m*3 7.98 C 0.26667 km/h
394 07-09-2020 09:00:00 8.95833 C 8.39 g/m*3 8.96 C 0.4 km/h
395 07-09-2020 10:00:00 10.56667 C 9.29 g/m*3 10.57 C 0.93333 km/h
396 07-09-2020 11:00:00 13.66667 C 10.23 g/m*3 13.67 C 1.73333 km/h
397 07-09-2020 12:00:00 16.475 C 10 g/m*3 16.48 C 3.34167 km/h
398 07-09-2020 13:00:00 18.13333 C 9.44 g/m*3 18.13 C 3.875 km/h
399 07-09-2020 14:00:00 19.43333 C 8.85 g/m*3 19.43 C 6.71667 km/h
400 07-09-2020 15:00:00 20.7 C 8.84 g/m*3 20.7 C 5.475 km/h
Sensor: Nr:Datum:Temp:Abs-Feuchte:Windchill:Wind:
Aussen-T/F 401 07-09-2020 16:00:00 21.69167 C 8.87 g/m*3 21.69 C 5.35 km/h
402 07-09-2020 17:00:00 22.85 C 9.02 g/m*3 22.85 C 3.74167 km/h
403 07-09-2020 18:00:00 22.425 C 10.01 g/m*3 22.43 C 0.66667 km/h
404 07-09-2020 19:00:00 20.85 C 10.05 g/m*3 20.85 C 2.53333 km/h
405 07-09-2020 20:00:00 16.58333 C 9.18 g/m*3 16.58 C 3.73333 km/h
406 07-09-2020 21:00:00 14.21667 C 9.18 g/m*3 14.22 C 0.53333 km/h
407 07-09-2020 22:00:00 12.7 C 8.95 g/m*3 12.7 C 0 km/h
408 07-09-2020 23:00:00 11.675 C 8.68 g/m*3 11.68 C 0 km/h
409 08-09-2020 00:00:00 10.875 C 8.49 g/m*3 10.88 C 0 km/h
410 08-09-2020 01:00:00 10.425 C 8.43 g/m*3 10.43 C 0.13333 km/h
411 08-09-2020 02:00:00 9.775 C 8.24 g/m*3 9.78 C 0 km/h
412 08-09-2020 03:00:00 9.25 C 8.1 g/m*3 9.25 C 0 km/h
413 08-09-2020 04:00:00 8.725 C 7.93 g/m*3 8.73 C 0 km/h
414 08-09-2020 05:00:00 8.41667 C 7.86 g/m*3 8.42 C 0 km/h
415 08-09-2020 06:00:00 8.05833 C 7.72 g/m*3 8.06 C 0 km/h
416 08-09-2020 07:00:00 8.125 C 7.83 g/m*3 8.13 C 0 km/h
417 08-09-2020 08:00:00 8.76667 C 8.17 g/m*3 8.77 C 0 km/h
418 08-09-2020 09:00:00 9.725 C 8.68 g/m*3 9.73 C 0.8 km/h
419 08-09-2020 10:00:00 12.20833 C 9.76 g/m*3 12.21 C 2.53333 km/h
420 08-09-2020 11:00:00 17.40833 C 10.33 g/m*3 17.41 C 6.99167 km/h
421 08-09-2020 12:00:00 20.70833 C 10.33 g/m*3 20.71 C 10.89167 km/h
422 08-09-2020 13:00:00 22.10833 C 10.22 g/m*3 22.11 C 10.48333 km/h
423 08-09-2020 14:00:00 23.06667 C 10.26 g/m*3 23.07 C 9.55833 km/h
424 08-09-2020 15:00:00 24.23333 C 10.27 g/m*3 24.23 C 10.74167 km/h
425 08-09-2020 16:00:00 25.63333 C 10.38 g/m*3 25.63 C 9.14167 km/h
Sensor: Nr:Datum:Temp:Abs-Feuchte:Windchill:Wind:
Aussen-T/F 426 08-09-2020 17:00:00 27.58333 C 10.63 g/m*3 27.58 C 9 km/h
427 08-09-2020 18:00:00 27.83333 C 11.18 g/m*3 27.83 C 6.43333 km/h
428 08-09-2020 19:00:00 25.13333 C 12.47 g/m*3 25.13 C 4.95 km/h
429 08-09-2020 20:00:00 20.625 C 12.44 g/m*3 20.63 C 1.46667 km/h
430 08-09-2020 21:00:00 18.66667 C 12.26 g/m*3 18.67 C 2.26667 km/h
431 08-09-2020 22:00:00 17.56667 C 12.04 g/m*3 17.57 C 2.66667 km/h
432 08-09-2020 23:00:00 16.24167 C 11.73 g/m*3 16.24 C 0 km/h
433 09-09-2020 00:00:00 15.15833 C 11.41 g/m*3 15.16 C 0 km/h
434 09-09-2020 01:00:00 14.46667 C 11.23 g/m*3 14.47 C 0 km/h
435 09-09-2020 02:00:00 13.90833 C 10.98 g/m*3 13.91 C 0 km/h
436 09-09-2020 03:00:00 13.35 C 10.76 g/m*3 13.35 C 0 km/h
437 09-09-2020 04:00:00 12.86667 C 10.49 g/m*3 12.87 C 0 km/h
438 09-09-2020 05:00:00 12.46667 C 10.32 g/m*3 12.47 C 0 km/h
439 09-09-2020 06:00:00 12.18333 C 10.2 g/m*3 12.18 C 0 km/h
440 09-09-2020 07:00:00 12.01667 C 10.14 g/m*3 12.02 C 0.13333 km/h
441 09-09-2020 08:00:00 12.41667 C 10.47 g/m*3 12.42 C 1.2 km/h
442 09-09-2020 09:00:00 13.48333 C 11.25 g/m*3 13.48 C 1.6 km/h
443 09-09-2020 10:00:00 16.26667 C 12.88 g/m*3 16.27 C 0.13333 km/h
444 09-09-2020 11:00:00 20.69167 C 13.52 g/m*3 20.69 C 0.53333 km/h
445 09-09-2020 12:00:00 22.36667 C 13.68 g/m*3 22.37 C 3.74167 km/h
446 09-09-2020 13:00:00 22.85 C 13.87 g/m*3 22.85 C 5.225 km/h
447 09-09-2020 14:00:00 23.69167 C 13.99 g/m*3 23.69 C 7.66667 km/h
448 09-09-2020 15:00:00 24.1 C 14.19 g/m*3 24.1 C 7.38333 km/h
449 09-09-2020 16:00:00 23.925 C 14.06 g/m*3 23.93 C 4.55 km/h
450 09-09-2020 17:00:00 24.525 C 14.16 g/m*3 24.53 C 4.54167 km/h
Sensor: Nr:Datum:Temp:Abs-Feuchte:Windchill:Wind:
Aussen-T/F 451 09-09-2020 18:00:00 24.46667 C 14.72 g/m*3 24.47 C 1.20833 km/h
452 09-09-2020 19:00:00 22.70833 C 14.54 g/m*3 22.71 C 0 km/h
453 09-09-2020 20:00:00 21.025 C 14.08 g/m*3 21.03 C 0.13333 km/h
454 09-09-2020 21:00:00 19.75 C 13.58 g/m*3 19.75 C 4.8 km/h
455 09-09-2020 22:00:00 19.65833 C 13.75 g/m*3 19.66 C 1.2 km/h
456 09-09-2020 23:00:00 20.05833 C 13.73 g/m*3 20.06 C 4.00833 km/h
457 10-09-2020 00:00:00 20.18333 C 14.59 g/m*3 20.18 C 10.89167 km/h
458 10-09-2020 01:00:00 18.69167 C 14.51 g/m*3 18.69 C 8.6 km/h
459 10-09-2020 02:00:00 17.675 C 13.63 g/m*3 17.68 C 4.55833 km/h
460 10-09-2020 03:00:00 17.175 C 13.05 g/m*3 17.18 C 2.00833 km/h
461 10-09-2020 04:00:00 16.85833 C 12.55 g/m*3 16.86 C 1.06667 km/h
462 10-09-2020 05:00:00 16.56667 C 11.82 g/m*3 16.57 C 2.13333 km/h
463 10-09-2020 06:00:00 16.08333 C 11.56 g/m*3 16.08 C 3.075 km/h
464 10-09-2020 07:00:00 15.475 C 11.38 g/m*3 15.48 C 5.1 km/h
465 10-09-2020 08:00:00 15.35833 C 11.29 g/m*3 15.36 C 2.4 km/h
466 10-09-2020 09:00:00 15.56667 C 11.39 g/m*3 15.57 C 3.875 km/h
467 10-09-2020 10:00:00 15.93333 C 10.87 g/m*3 15.93 C 6.71667 km/h
468 10-09-2020 11:00:00 16.7 C 10.67 g/m*3 16.7 C 5.36667 km/h
469 10-09-2020 12:00:00 17.83333 C 10.28 g/m*3 17.83 C 7.24167 km/h
470 10-09-2020 13:00:00 18.54167 C 9.52 g/m*3 18.54 C 5.9 km/h
471 10-09-2020 14:00:00 19.66667 C 9.96 g/m*3 19.67 C 5.5 km/h
472 10-09-2020 15:00:00 20.84167 C 10.16 g/m*3 20.84 C 7.11667 km/h
473 10-09-2020 16:00:00 22.06667 C 10.31 g/m*3 22.07 C 7.65833 km/h
474 10-09-2020 17:00:00 22.73333 C 10.27 g/m*3 22.73 C 8.61667 km/h
475 10-09-2020 18:00:00 22.45 C 10.24 g/m*3 22.45 C 5.225 km/h
Sensor: Nr:Datum:Temp:Abs-Feuchte:Windchill:Wind:
Aussen-T/F 476 10-09-2020 19:00:00 20.80833 C 9.8 g/m*3 20.81 C 2 km/h
477 10-09-2020 20:00:00 17.675 C 9.25 g/m*3 17.68 C 1.33333 km/h
478 10-09-2020 21:00:00 15.60833 C 8.98 g/m*3 15.61 C 3.2 km/h
479 10-09-2020 22:00:00 14.325 C 9.01 g/m*3 14.33 C 0.4 km/h
480 10-09-2020 23:00:00 12.7 C 8.75 g/m*3 12.7 C 0 km/h
481 11-09-2020 00:00:00 12.08333 C 8.78 g/m*3 12.08 C 0 km/h
482 11-09-2020 01:00:00 11.95 C 8.78 g/m*3 11.95 C 0 km/h
483 11-09-2020 02:00:00 11.05833 C 8.52 g/m*3 11.06 C 0 km/h
484 11-09-2020 03:00:00 10.23333 C 8.35 g/m*3 10.23 C 0 km/h
485 11-09-2020 04:00:00 9.59167 C 8.23 g/m*3 9.59 C 0 km/h
486 11-09-2020 05:00:00 8.95833 C 8.03 g/m*3 8.96 C 0 km/h
487 11-09-2020 06:00:00 8.43333 C 7.87 g/m*3 8.43 C 0 km/h
488 11-09-2020 07:00:00 8.26667 C 7.88 g/m*3 8.27 C 0 km/h
489 11-09-2020 08:00:00 8.625 C 8.13 g/m*3 8.63 C 0 km/h
490 11-09-2020 09:00:00 9.45833 C 8.62 g/m*3 9.46 C 0 km/h
491 11-09-2020 10:00:00 11.20833 C 9.55 g/m*3 11.21 C 0 km/h
492 11-09-2020 11:00:00 14.025 C 10.22 g/m*3 14.03 C 0.26667 km/h
493 11-09-2020 12:00:00 17.6 C 9.97 g/m*3 17.6 C 2.93333 km/h
494 11-09-2020 13:00:00 19.86667 C 9.7 g/m*3 19.87 C 5.35833 km/h
495 11-09-2020 14:00:00 21.15 C 10.06 g/m*3 21.15 C 5.09167 km/h
496 11-09-2020 15:00:00 22.44167 C 10.4 g/m*3 22.44 C 6.45833 km/h
497 11-09-2020 16:00:00 23.58333 C 10.59 g/m*3 23.58 C 8.6 km/h
498 11-09-2020 17:00:00 24.6 C 10.8 g/m*3 24.6 C 6.43333 km/h
499 11-09-2020 18:00:00 24.36667 C 11.27 g/m*3 24.37 C 3.075 km/h
500 11-09-2020 19:00:00 21.425 C 11.31 g/m*3 21.43 C 2.80833 km/h
Sensor: Nr:Datum:Temp:Abs-Feuchte:Windchill:Wind:
Aussen-T/F 501 11-09-2020 20:00:00 18.3 C 10.65 g/m*3 18.3 C 4.13333 km/h
502 11-09-2020 21:00:00 16.35833 C 10.47 g/m*3 16.36 C 0.53333 km/h
503 11-09-2020 22:00:00 15.04167 C 10.27 g/m*3 15.04 C 0 km/h
504 11-09-2020 23:00:00 13.93333 C 10.07 g/m*3 13.93 C 0 km/h
505 12-09-2020 00:00:00 13.05 C 9.85 g/m*3 13.05 C 0 km/h
506 12-09-2020 01:00:00 12.525 C 9.71 g/m*3 12.53 C 0 km/h
507 12-09-2020 02:00:00 11.975 C 9.53 g/m*3 11.98 C 0 km/h
508 12-09-2020 03:00:00 11.475 C 9.35 g/m*3 11.48 C 0 km/h
509 12-09-2020 04:00:00 10.975 C 9.17 g/m*3 10.98 C 0 km/h
510 12-09-2020 05:00:00 10.525 C 9.03 g/m*3 10.53 C 0 km/h
511 12-09-2020 06:00:00 10.225 C 8.9 g/m*3 10.23 C 0 km/h
512 12-09-2020 07:00:00 10.16667 C 8.94 g/m*3 10.17 C 0 km/h
513 12-09-2020 08:00:00 10.9 C 9.46 g/m*3 10.9 C 0 km/h
514 12-09-2020 09:00:00 12.625 C 10.36 g/m*3 12.63 C 0.26667 km/h
515 12-09-2020 10:00:00 14.675 C 10.94 g/m*3 14.68 C 0.13333 km/h
516 12-09-2020 11:00:00 17.25 C 11.71 g/m*3 17.25 C 0 km/h
517 12-09-2020 12:00:00 20.15833 C 12.27 g/m*3 20.16 C 2.80833 km/h
518 12-09-2020 13:00:00 24.425 C 11.76 g/m*3 24.43 C 11.15833 km/h
519 12-09-2020 14:00:00 24.90833 C 12.29 g/m*3 24.91 C 6.85 km/h
520 12-09-2020 15:00:00 25.61667 C 12.43 g/m*3 25.62 C 8.6 km/h
521 12-09-2020 16:00:00 25.75 C 12.36 g/m*3 25.75 C 10.475 km/h
522 12-09-2020 17:00:00 26.14167 C 12.76 g/m*3 26.14 C 10.76667 km/h
523 12-09-2020 18:00:00 25.28333 C 12.84 g/m*3 25.28 C 7.23333 km/h
524 12-09-2020 19:00:00 23.03333 C 12.66 g/m*3 23.03 C 1.46667 km/h
525 12-09-2020 20:00:00 19.79167 C 11.85 g/m*3 19.79 C 1.6 km/h
Sensor: Nr:Datum:Temp:Abs-Feuchte:Windchill:Wind:
Aussen-T/F 526 12-09-2020 21:00:00 18.49167 C 10.94 g/m*3 18.49 C 1.20833 km/h
527 12-09-2020 22:00:00 17.16667 C 10.49 g/m*3 17.17 C 0.66667 km/h
528 12-09-2020 23:00:00 15.81667 C 10.29 g/m*3 15.82 C 1.06667 km/h
529 13-09-2020 00:00:00 14.36667 C 9.98 g/m*3 14.37 C 0.26667 km/h
530 13-09-2020 01:00:00 13.05 C 9.73 g/m*3 13.05 C 0.13333 km/h
531 13-09-2020 02:00:00 12.375 C 9.55 g/m*3 12.38 C 0.26667 km/h
532 13-09-2020 03:00:00 11.73333 C 9.42 g/m*3 11.73 C 0 km/h
533 13-09-2020 04:00:00 11.35 C 9.32 g/m*3 11.35 C 0 km/h
534 13-09-2020 05:00:00 10.84167 C 9.12 g/m*3 10.84 C 0 km/h
535 13-09-2020 06:00:00 10.35 C 8.92 g/m*3 10.35 C 0 km/h
536 13-09-2020 07:00:00 10.15 C 8.91 g/m*3 10.15 C 0 km/h
537 13-09-2020 08:00:00 10.66667 C 9.31 g/m*3 10.67 C 0.26667 km/h
538 13-09-2020 09:00:00 11.60833 C 9.88 g/m*3 11.61 C 0 km/h
539 13-09-2020 10:00:00 13.1 C 10.67 g/m*3 13.1 C 0 km/h
540 13-09-2020 11:00:00 15.53333 C 11.27 g/m*3 15.53 C 0.4 km/h
541 13-09-2020 12:00:00 19.05833 C 11.98 g/m*3 19.06 C 2.26667 km/h
542 13-09-2020 13:00:00 21.825 C 11.99 g/m*3 21.83 C 0.53333 km/h
543 13-09-2020 14:00:00 23.725 C 11.78 g/m*3 23.73 C 2.81667 km/h
544 13-09-2020 15:00:00 25.85833 C 11.17 g/m*3 25.86 C 4.14167 km/h
545 13-09-2020 16:00:00 26.83333 C 11.13 g/m*3 26.83 C 5.1 km/h
546 13-09-2020 17:00:00 28.81667 C 11.8 g/m*3 28.82 C 3.86667 km/h
547 13-09-2020 18:00:00 27.46667 C 13.01 g/m*3 27.47 C 2.66667 km/h
548 13-09-2020 19:00:00 23.69167 C 11.87 g/m*3 23.69 C 3.2 km/h
549 13-09-2020 20:00:00 20.53333 C 11.32 g/m*3 20.53 C 1.86667 km/h
550 13-09-2020 21:00:00 18.25 C 10.95 g/m*3 18.25 C 0 km/h
Sensor: Nr:Datum:Temp:Abs-Feuchte:Windchill:Wind:
Aussen-T/F 551 13-09-2020 22:00:00 16.55833 C 10.63 g/m*3 16.56 C 0 km/h
552 13-09-2020 23:00:00 15.175 C 10.44 g/m*3 15.18 C 0 km/h
553 14-09-2020 00:00:00 14.325 C 10.28 g/m*3 14.33 C 0 km/h
554 14-09-2020 01:00:00 13.59167 C 10.02 g/m*3 13.59 C 0 km/h
555 14-09-2020 02:00:00 12.875 C 9.83 g/m*3 12.88 C 0 km/h
556 14-09-2020 03:00:00 12.33333 C 9.69 g/m*3 12.33 C 0 km/h
557 14-09-2020 04:00:00 11.64167 C 9.45 g/m*3 11.64 C 0 km/h
558 14-09-2020 05:00:00 11.25833 C 9.33 g/m*3 11.26 C 0 km/h
559 14-09-2020 06:00:00 10.83333 C 9.15 g/m*3 10.83 C 0 km/h
560 14-09-2020 07:00:00 10.725 C 9.19 g/m*3 10.73 C 0 km/h
561 14-09-2020 08:00:00 11.15833 C 9.54 g/m*3 11.16 C 0 km/h
562 14-09-2020 09:00:00 12.125 C 10.2 g/m*3 12.13 C 0 km/h
563 14-09-2020 10:00:00 13.875 C 11.28 g/m*3 13.88 C 0 km/h
564 14-09-2020 11:00:00 17.325 C 12.59 g/m*3 17.33 C 0 km/h
565 14-09-2020 12:00:00 21.75833 C 13.7 g/m*3 21.76 C 1.075 km/h
566 14-09-2020 13:00:00 25.95833 C 13.95 g/m*3 25.96 C 3.33333 km/h
567 14-09-2020 14:00:00 28.11667 C 13.34 g/m*3 28.12 C 4.01667 km/h
568 14-09-2020 15:00:00 29.625 C 11.66 g/m*3 29.63 C 7.11667 km/h
569 14-09-2020 16:00:00 29.875 C 12.2 g/m*3 29.88 C 4.675 km/h
570 14-09-2020 17:00:00 29.775 C 14.18 g/m*3 29.78 C 1.46667 km/h
571 14-09-2020 18:00:00 30.61667 C 13.35 g/m*3 30.62 C 3.06667 km/h
572 14-09-2020 19:00:00 25.86667 C 11.8 g/m*3 25.87 C 7.39167 km/h
573 14-09-2020 20:00:00 22.39167 C 11.7 g/m*3 22.39 C 2.54167 km/h
574 14-09-2020 21:00:00 19.975 C 12.17 g/m*3 19.98 C 0 km/h
575 14-09-2020 22:00:00 18.525 C 11.98 g/m*3 18.52 C 0 km/h
Sensor: Nr:Datum:Temp:Abs-Feuchte:Windchill:Wind:
Aussen-T/F 576 14-09-2020 23:00:00 17.08333 C 11.72 g/m*3 17.08 C 0 km/h
577 15-09-2020 00:00:00 16.23333 C 11.47 g/m*3 16.23 C 0 km/h
578 15-09-2020 01:00:00 15.45833 C 11.28 g/m*3 15.46 C 0 km/h
579 15-09-2020 02:00:00 14.9 C 11.08 g/m*3 14.9 C 0 km/h
580 15-09-2020 03:00:00 14.15833 C 10.84 g/m*3 14.16 C 0 km/h
581 15-09-2020 04:00:00 13.54167 C 10.59 g/m*3 13.54 C 0 km/h
582 15-09-2020 05:00:00 13.10833 C 10.5 g/m*3 13.11 C 0 km/h
583 15-09-2020 06:00:00 12.50833 C 10.19 g/m*3 12.51 C 0 km/h
584 15-09-2020 07:00:00 12.2 C 10.11 g/m*3 12.2 C 0 km/h
585 15-09-2020 08:00:00 12.53333 C 10.43 g/m*3 12.53 C 0 km/h
586 15-09-2020 09:00:00 13.69167 C 11.29 g/m*3 13.69 C 0 km/h
587 15-09-2020 10:00:00 15.39167 C 12.46 g/m*3 15.39 C 0 km/h
588 15-09-2020 11:00:00 18.00833 C 13.23 g/m*3 18.01 C 0 km/h
589 15-09-2020 12:00:00 21.76667 C 14.25 g/m*3 21.77 C 0 km/h
590 15-09-2020 13:00:00 25.79167 C 13.96 g/m*3 25.79 C 1.6 km/h
591 15-09-2020 14:00:00 29.24167 C 12.37 g/m*3 29.24 C 4.13333 km/h
592 15-09-2020 15:00:00 30.65833 C 10.87 g/m*3 30.66 C 5.225 km/h
593 15-09-2020 16:00:00 31.5 C 9.92 g/m*3 31.5 C 4.93333 km/h
594 15-09-2020 17:00:00 33.19167 C 10.43 g/m*3 33.19 C 4.53333 km/h
595 15-09-2020 18:00:00 31.875 C 12.58 g/m*3 31.88 C 3.73333 km/h
596 15-09-2020 19:00:00 27.65833 C 11.92 g/m*3 27.66 C 3.33333 km/h
597 15-09-2020 20:00:00 24.3 C 11.82 g/m*3 24.3 C 4.4 km/h
598 15-09-2020 21:00:00 22.05833 C 12.2 g/m*3 22.06 C 0.13333 km/h
599 15-09-2020 22:00:00 20.48333 C 12.41 g/m*3 20.48 C 0 km/h
600 15-09-2020 23:00:00 18.90833 C 12.33 g/m*3 18.91 C 0 km/h
Sensor: Nr:Datum:Temp:Abs-Feuchte:Windchill:Wind:
Aussen-T/F 601 16-09-2020 00:00:00 18.13333 C 12.04 g/m*3 18.13 C 0 km/h
602 16-09-2020 01:00:00 17.29167 C 11.8 g/m*3 17.29 C 0 km/h
603 16-09-2020 02:00:00 16.225 C 11.64 g/m*3 16.23 C 0 km/h
604 16-09-2020 03:00:00 15.49167 C 11.43 g/m*3 15.49 C 0 km/h
605 16-09-2020 04:00:00 14.95 C 11.31 g/m*3 14.95 C 0 km/h
606 16-09-2020 05:00:00 14.5 C 11.19 g/m*3 14.5 C 0.4 km/h
607 16-09-2020 06:00:00 14.25833 C 11.14 g/m*3 14.26 C 0 km/h
608 16-09-2020 07:00:00 14.1 C 11.15 g/m*3 14.1 C 0.26667 km/h
609 16-09-2020 08:00:00 14.51667 C 11.45 g/m*3 14.52 C 0 km/h
610 16-09-2020 09:00:00 15.54167 C 12.13 g/m*3 15.54 C 0 km/h
611 16-09-2020 10:00:00 18.19167 C 13.13 g/m*3 18.19 C 0.26667 km/h
612 16-09-2020 11:00:00 20.775 C 13.49 g/m*3 20.78 C 0.13333 km/h
613 16-09-2020 12:00:00 23.24167 C 14 g/m*3 23.24 C 0 km/h
614 16-09-2020 13:00:00 24.46667 C 14.33 g/m*3 24.47 C 0.13333 km/h
615 16-09-2020 14:00:00 26.5 C 14.56 g/m*3 26.5 C 1.6 km/h
616 16-09-2020 15:00:00 28.38333 C 14.58 g/m*3 28.38 C 1.46667 km/h
617 16-09-2020 16:00:00 30.15 C 12.08 g/m*3 30.15 C 12.35833 km/h
618 16-09-2020 17:00:00 28.55833 C 14.56 g/m*3 28.56 C 13.96667 km/h
619 16-09-2020 18:00:00 26.775 C 15.19 g/m*3 26.78 C 13.56667 km/h
620 16-09-2020 19:00:00 25.28333 C 15.03 g/m*3 25.28 C 5.63333 km/h
621 16-09-2020 20:00:00 22.91667 C 14.49 g/m*3 22.92 C 2.53333 km/h
622 16-09-2020 21:00:00 22.29167 C 14.31 g/m*3 22.29 C 4.69167 km/h
623 16-09-2020 22:00:00 22.30833 C 14.01 g/m*3 22.31 C 7.66667 km/h
624 16-09-2020 23:00:00 21.24167 C 13.41 g/m*3 21.24 C 3.75 km/h
625 17-09-2020 00:00:00 20.75 C 13.12 g/m*3 20.75 C 8.05833 km/h
Sensor: Nr:Datum:Temp:Abs-Feuchte:Windchill:Wind:
Aussen-T/F 626 17-09-2020 01:00:00 20.09167 C 12.51 g/m*3 20.09 C 6.71667 km/h
627 17-09-2020 02:00:00 18.75 C 12.07 g/m*3 18.75 C 5.23333 km/h
628 17-09-2020 03:00:00 17.31667 C 11.82 g/m*3 17.32 C 2.8 km/h
629 17-09-2020 04:00:00 17.36667 C 11.98 g/m*3 17.37 C 8.74167 km/h
630 17-09-2020 05:00:00 17.125 C 11.71 g/m*3 17.13 C 7.375 km/h
631 17-09-2020 06:00:00 16.86667 C 11.44 g/m*3 16.87 C 6.15833 km/h
632 17-09-2020 07:00:00 16.63333 C 11.36 g/m*3 16.63 C 5.89167 km/h
633 17-09-2020 08:00:00 16.08333 C 10.89 g/m*3 16.08 C 9.425 km/h
634 17-09-2020 09:00:00 15.66667 C 10.46 g/m*3 15.67 C 8.06667 km/h
635 17-09-2020 10:00:00 16.05 C 9.52 g/m*3 16.05 C 6.71667 km/h
636 17-09-2020 11:00:00 16.4 C 9.11 g/m*3 16.4 C 10.48333 km/h
637 17-09-2020 12:00:00 17.575 C 9.16 g/m*3 17.58 C 12.76667 km/h
638 17-09-2020 13:00:00 18.81667 C 8.75 g/m*3 18.82 C 14.23333 km/h
639 17-09-2020 14:00:00 20.15833 C 7.94 g/m*3 20.16 C 13.29167 km/h
640 17-09-2020 15:00:00 20.91667 C 7.64 g/m*3 20.92 C 12.5 km/h
641 17-09-2020 16:00:00 21.61667 C 7.28 g/m*3 21.62 C 14.63333 km/h
642 17-09-2020 17:00:00 22.10833 C 7.36 g/m*3 22.11 C 15.3 km/h
643 17-09-2020 18:00:00 21.83333 C 7.63 g/m*3 21.83 C 10.33333 km/h
644 17-09-2020 19:00:00 19.575 C 8.01 g/m*3 19.58 C 2.40833 km/h
645 17-09-2020 20:00:00 15.91667 C 8.08 g/m*3 15.92 C 1.34167 km/h
646 17-09-2020 21:00:00 14.69167 C 8.1 g/m*3 14.69 C 1.6 km/h
647 17-09-2020 22:00:00 14.66667 C 8.24 g/m*3 14.67 C 2.00833 km/h
648 17-09-2020 23:00:00 13.575 C 8.15 g/m*3 13.58 C 1.475 km/h
649 18-09-2020 00:00:00 12.5 C 8.11 g/m*3 12.5 C 0.53333 km/h
650 18-09-2020 01:00:00 12.25833 C 8.1 g/m*3 12.26 C 2.41667 km/h
Sensor: Nr:Datum:Temp:Abs-Feuchte:Windchill:Wind:
Aussen-T/F 651 18-09-2020 02:00:00 12.55833 C 7.99 g/m*3 12.56 C 3.46667 km/h
652 18-09-2020 03:00:00 10.925 C 7.75 g/m*3 10.93 C 3.46667 km/h
653 18-09-2020 04:00:00 10.14167 C 7.61 g/m*3 10.14 C 4.13333 km/h
654 18-09-2020 05:00:00 9.55833 C 7.49 g/m*3 9.56 C 1.33333 km/h
655 18-09-2020 06:00:00 9.28333 C 7.45 g/m*3 9.28 C 0.53333 km/h
656 18-09-2020 07:00:00 9.18333 C 7.51 g/m*3 9.18 C 1.86667 km/h
657 18-09-2020 08:00:00 10.18333 C 7.93 g/m*3 10.18 C 0 km/h
658 18-09-2020 09:00:00 11.2 C 8.2 g/m*3 11.2 C 1.86667 km/h
659 18-09-2020 10:00:00 13.375 C 8.41 g/m*3 13.38 C 5.21667 km/h
660 18-09-2020 11:00:00 16.19167 C 8.82 g/m*3 16.19 C 8.33333 km/h
661 18-09-2020 12:00:00 18.7 C 9.38 g/m*3 18.7 C 8.6 km/h
662 18-09-2020 13:00:00 21.04167 C 10.18 g/m*3 21.04 C 12.36667 km/h
663 18-09-2020 14:00:00 22.58333 C 10.24 g/m*3 22.58 C 13.83333 km/h
664 18-09-2020 15:00:00 23.04167 C 9.98 g/m*3 23.04 C 13.83333 km/h
665 18-09-2020 16:00:00 23.66667 C 9.91 g/m*3 23.67 C 12.1 km/h
666 18-09-2020 17:00:00 24.73333 C 9.77 g/m*3 24.73 C 8.46667 km/h
667 18-09-2020 18:00:00 24.55 C 9.5 g/m*3 24.55 C 6.58333 km/h
668 18-09-2020 19:00:00 21.19167 C 9.55 g/m*3 21.19 C 4.40833 km/h
669 18-09-2020 20:00:00 16.91667 C 9.06 g/m*3 16.92 C 3.86667 km/h
670 18-09-2020 21:00:00 15.46667 C 8.63 g/m*3 15.47 C 5.06667 km/h
671 18-09-2020 22:00:00 14.61667 C 8.02 g/m*3 14.62 C 0.66667 km/h
672 18-09-2020 23:00:00 14.05833 C 7.91 g/m*3 14.06 C 2.8 km/h
673 19-09-2020 00:00:00 13.54167 C 7.74 g/m*3 13.54 C 2.53333 km/h
674 19-09-2020 01:00:00 12.625 C 7.61 g/m*3 12.63 C 4 km/h
675 19-09-2020 02:00:00 11.63333 C 7.47 g/m*3 11.63 C 1.6 km/h
Sensor: Nr:Datum:Temp:Abs-Feuchte:Windchill:Wind:
Aussen-T/F 676 19-09-2020 03:00:00 10.375 C 7.31 g/m*3 10.38 C 0.93333 km/h
677 19-09-2020 04:00:00 9.625 C 7.21 g/m*3 9.63 C 0 km/h
678 19-09-2020 05:00:00 8.825 C 7.08 g/m*3 8.82 C 0 km/h
679 19-09-2020 06:00:00 8.175 C 7.04 g/m*3 8.18 C 0 km/h
680 19-09-2020 07:00:00 7.68333 C 7.04 g/m*3 7.68 C 0 km/h
681 19-09-2020 08:00:00 7.94167 C 7.32 g/m*3 7.94 C 0 km/h
682 19-09-2020 09:00:00 8.91667 C 7.76 g/m*3 8.92 C 0 km/h
683 19-09-2020 10:00:00 11.41667 C 8.33 g/m*3 11.42 C 0.8 km/h
684 19-09-2020 11:00:00 15.09167 C 8.6 g/m*3 15.09 C 2.53333 km/h
685 19-09-2020 12:00:00 19.15 C 8.7 g/m*3 19.15 C 7.93333 km/h
686 19-09-2020 13:00:00 21.125 C 8.61 g/m*3 21.13 C 6.16667 km/h
687 19-09-2020 14:00:00 23.24167 C 8.63 g/m*3 23.24 C 8.46667 km/h
688 19-09-2020 15:00:00 24.33333 C 8.48 g/m*3 24.33 C 8.31667 km/h
689 19-09-2020 16:00:00 25.29167 C 8.19 g/m*3 25.29 C 9.41667 km/h
690 19-09-2020 17:00:00 26.2 C 8.17 g/m*3 26.2 C 8.34167 km/h
691 19-09-2020 18:00:00 26.39167 C 8.38 g/m*3 26.39 C 3.2 km/h
692 19-09-2020 19:00:00 21.7 C 8.12 g/m*3 21.7 C 2.13333 km/h
693 19-09-2020 20:00:00 17.99167 C 7.84 g/m*3 17.99 C 4.4 km/h
694 19-09-2020 21:00:00 16.35833 C 7.92 g/m*3 16.36 C 4.93333 km/h
695 19-09-2020 22:00:00 15.54167 C 8.16 g/m*3 15.54 C 1.86667 km/h
696 19-09-2020 23:00:00 14.425 C 8.17 g/m*3 14.43 C 0 km/h
697 20-09-2020 00:00:00 13.7 C 8.25 g/m*3 13.7 C 0.13333 km/h
698 20-09-2020 01:00:00 12.70833 C 8.27 g/m*3 12.71 C 0 km/h
699 20-09-2020 02:00:00 11.76667 C 7.98 g/m*3 11.77 C 0 km/h
700 20-09-2020 03:00:00 10.6 C 7.73 g/m*3 10.6 C 0 km/h
Sensor: Nr:Datum:Temp:Abs-Feuchte:Windchill:Wind:
Aussen-T/F 701 20-09-2020 04:00:00 9.84167 C 7.5 g/m*3 9.84 C 0 km/h
702 20-09-2020 05:00:00 9.49167 C 7.6 g/m*3 9.49 C 0 km/h
703 20-09-2020 06:00:00 8.96667 C 7.46 g/m*3 8.97 C 0 km/h
704 20-09-2020 07:00:00 8.3 C 7.32 g/m*3 8.3 C 0 km/h
705 20-09-2020 08:00:00 8.71667 C 7.73 g/m*3 8.72 C 0 km/h
706 20-09-2020 09:00:00 9.625 C 8.21 g/m*3 9.63 C 0 km/h
707 20-09-2020 10:00:00 11.55833 C 9 g/m*3 11.56 C 0 km/h
708 20-09-2020 11:00:00 14.05833 C 9.46 g/m*3 14.06 C 0 km/h
709 20-09-2020 12:00:00 18.15833 C 9.75 g/m*3 18.16 C 1.06667 km/h
710 20-09-2020 13:00:00 21.14167 C 9.27 g/m*3 21.14 C 4.53333 km/h
711 20-09-2020 14:00:00 22.81667 C 8.88 g/m*3 22.82 C 3.6 km/h
712 20-09-2020 15:00:00 22.975 C 9.78 g/m*3 22.98 C 1.33333 km/h
713 20-09-2020 16:00:00 22.65 C 9.75 g/m*3 22.65 C 1.06667 km/h
714 20-09-2020 17:00:00 23.95833 C 9.93 g/m*3 23.96 C 1.86667 km/h
715 20-09-2020 18:00:00 21.43333 C 9.47 g/m*3 21.43 C 5.06667 km/h
716 20-09-2020 19:00:00 18.625 C 8.91 g/m*3 18.63 C 3.6 km/h
717 20-09-2020 20:00:00 15.78333 C 8.29 g/m*3 15.78 C 1.33333 km/h
718 20-09-2020 21:00:00 14.3 C 8.13 g/m*3 14.3 C 0 km/h
719 20-09-2020 22:00:00 13.075 C 8.3 g/m*3 13.08 C 0 km/h
720 20-09-2020 23:00:00 11.68333 C 8.05 g/m*3 11.68 C 0 km/h
721 21-09-2020 00:00:00 10.94167 C 7.88 g/m*3 10.94 C 0 km/h
722 21-09-2020 01:00:00 10.25833 C 7.8 g/m*3 10.26 C 0 km/h
723 21-09-2020 02:00:00 9.54167 C 7.67 g/m*3 9.54 C 0 km/h
724 21-09-2020 03:00:00 9.03333 C 7.62 g/m*3 9.03 C 0 km/h
725 21-09-2020 04:00:00 8.55 C 7.54 g/m*3 8.55 C 0 km/h
Sensor: Nr:Datum:Temp:Abs-Feuchte:Windchill:Wind:
Aussen-T/F 726 21-09-2020 05:00:00 8.15 C 7.44 g/m*3 8.15 C 0 km/h
727 21-09-2020 06:00:00 7.79167 C 7.35 g/m*3 7.79 C 0 km/h
728 21-09-2020 07:00:00 7.34167 C 7.22 g/m*3 7.34 C 0 km/h
729 21-09-2020 08:00:00 7.525 C 7.4 g/m*3 7.53 C 0 km/h
730 21-09-2020 09:00:00 8.475 C 7.84 g/m*3 8.48 C 0 km/h
731 21-09-2020 10:00:00 10.075 C 8.54 g/m*3 10.07 C 0 km/h
732 21-09-2020 11:00:00 13.05833 C 9.27 g/m*3 13.06 C 0 km/h
733 21-09-2020 12:00:00 17.375 C 10.1 g/m*3 17.38 C 0 km/h
734 21-09-2020 13:00:00 20.58333 C 9.88 g/m*3 20.58 C 1.73333 km/h
735 21-09-2020 14:00:00 23.44167 C 9.01 g/m*3 23.44 C 7.78333 km/h
736 21-09-2020 15:00:00 24.26667 C 8.56 g/m*3 24.27 C 5.21667 km/h
737 21-09-2020 16:00:00 24.63333 C 8.44 g/m*3 24.63 C 5.9 km/h
738 21-09-2020 17:00:00 26.25833 C 8.64 g/m*3 26.26 C 2.93333 km/h
739 21-09-2020 18:00:00 25.7 C 9.36 g/m*3 25.7 C 3.06667 km/h
740 21-09-2020 19:00:00 21.13333 C 8.71 g/m*3 21.13 C 5.73333 km/h
741 21-09-2020 20:00:00 17.55833 C 8.53 g/m*3 17.56 C 0.93333 km/h
742 21-09-2020 21:00:00 15.46667 C 8.53 g/m*3 15.47 C 0 km/h
743 21-09-2020 22:00:00 13.98333 C 8.46 g/m*3 13.98 C 0 km/h
744 21-09-2020 23:00:00 12.9 C 8.51 g/m*3 12.9 C 0 km/h

Maximal/Minimal-Werte vom 22.08.2020 - 21.09.2020

Sensor Min Max Avg
Temp
(Aussen-T/F)
7.3 °C
21-09-2020  07:15:00
33.7 °C
15-09-2020  17:35:00
17.22 °C
Abs-Feuchte
(Aussen-T/F)
7.04 g/m*3
19-09-2020  06:00:00
16 g/m*3
22-08-2020  00:00:00
10.67 g/m*3
Windchill
(Aussen-T/F)
7.34 C
21-09-2020  07:00:00
33.19 C
15-09-2020  17:00:00
17.2 C

Die Daten stammen von einer Davis Vantage Pro 2 Wetter-Station und werden unter Linux mit der Software wview2wettercgi und aufbereitet. Alle Angaben erfolgen ohne Gewähr für ihre Vollständigkeit oder Richtigkeit.
Kontakt: Rainer Krienke krienke@uni-koblenz.de . Meine Webseiten an der Uni Koblenz oder privat.
Version: $Revision: 0.78 $